sensor_id;sensor_type;location;lat;lon;timestamp;P1;durP1;ratioP1;P2;durP2;ratioP2
23044;SDS011;11690;51.716;23.066;2024-02-28T00:00:12;50.25;;;20.58;;
23044;SDS011;11690;51.716;23.066;2024-02-28T00:03:20;48.88;;;20.90;;
23044;SDS011;11690;51.716;23.066;2024-02-28T00:05:49;37.67;;;18.67;;
23044;SDS011;11690;51.716;23.066;2024-02-28T00:08:16;41.95;;;18.95;;
23044;SDS011;11690;51.716;23.066;2024-02-28T00:10:44;37.17;;;17.35;;
23044;SDS011;11690;51.716;23.066;2024-02-28T00:13:11;38.13;;;17.42;;
23044;SDS011;11690;51.716;23.066;2024-02-28T00:15:38;46.25;;;21.63;;
23044;SDS011;11690;51.716;23.066;2024-02-28T00:18:05;32.17;;;17.00;;
23044;SDS011;11690;51.716;23.066;2024-02-28T00:20:32;44.88;;;19.90;;
23044;SDS011;11690;51.716;23.066;2024-02-28T00:22:59;37.35;;;17.65;;
23044;SDS011;11690;51.716;23.066;2024-02-28T00:25:27;39.80;;;19.88;;
23044;SDS011;11690;51.716;23.066;2024-02-28T00:27:54;34.80;;;16.95;;
23044;SDS011;11690;51.716;23.066;2024-02-28T00:30:21;42.92;;;19.00;;
23044;SDS011;11690;51.716;23.066;2024-02-28T00:32:48;50.10;;;21.50;;
23044;SDS011;11690;51.716;23.066;2024-02-28T00:35:15;44.53;;;19.08;;
23044;SDS011;11690;51.716;23.066;2024-02-28T00:37:42;42.88;;;18.63;;
23044;SDS011;11690;51.716;23.066;2024-02-28T00:40:09;66.35;;;24.00;;
23044;SDS011;11690;51.716;23.066;2024-02-28T00:42:37;54.75;;;21.30;;
23044;SDS011;11690;51.716;23.066;2024-02-28T00:45:04;36.75;;;17.33;;
23044;SDS011;11690;51.716;23.066;2024-02-28T00:47:31;48.38;;;24.42;;
23044;SDS011;11690;51.716;23.066;2024-02-28T00:49:59;62.25;;;24.13;;
23044;SDS011;11690;51.716;23.066;2024-02-28T00:52:25;131.70;;;35.67;;
23044;SDS011;11690;51.716;23.066;2024-02-28T00:54:53;58.33;;;21.35;;
23044;SDS011;11690;51.716;23.066;2024-02-28T00:57:20;110.45;;;43.92;;
23044;SDS011;11690;51.716;23.066;2024-02-28T00:59:47;73.25;;;30.05;;
23044;SDS011;11690;51.716;23.066;2024-02-28T01:02:14;117.93;;;33.75;;
23044;SDS011;11690;51.716;23.066;2024-02-28T01:04:42;68.15;;;23.75;;
23044;SDS011;11690;51.716;23.066;2024-02-28T01:07:09;174.77;;;51.83;;
23044;SDS011;11690;51.716;23.066;2024-02-28T01:09:36;81.13;;;35.42;;
23044;SDS011;11690;51.716;23.066;2024-02-28T01:12:03;68.38;;;26.00;;
23044;SDS011;11690;51.716;23.066;2024-02-28T01:14:30;93.05;;;28.35;;
23044;SDS011;11690;51.716;23.066;2024-02-28T01:16:57;71.15;;;25.02;;
23044;SDS011;11690;51.716;23.066;2024-02-28T01:19:24;111.65;;;43.60;;
23044;SDS011;11690;51.716;23.066;2024-02-28T01:21:51;54.35;;;26.55;;
23044;SDS011;11690;51.716;23.066;2024-02-28T01:24:18;60.65;;;24.98;;
23044;SDS011;11690;51.716;23.066;2024-02-28T01:26:45;95.40;;;30.00;;
23044;SDS011;11690;51.716;23.066;2024-02-28T01:29:13;75.30;;;26.02;;
23044;SDS011;11690;51.716;23.066;2024-02-28T01:31:40;80.63;;;32.05;;
23044;SDS011;11690;51.716;23.066;2024-02-28T01:34:07;78.50;;;29.33;;
23044;SDS011;11690;51.716;23.066;2024-02-28T01:36:34;58.65;;;22.17;;
23044;SDS011;11690;51.716;23.066;2024-02-28T01:39:02;52.83;;;22.15;;
23044;SDS011;11690;51.716;23.066;2024-02-28T01:41:29;96.07;;;40.17;;
23044;SDS011;11690;51.716;23.066;2024-02-28T01:43:57;111.00;;;34.00;;
23044;SDS011;11690;51.716;23.066;2024-02-28T01:46:25;93.03;;;29.98;;
23044;SDS011;11690;51.716;23.066;2024-02-28T01:48:53;84.18;;;27.88;;
23044;SDS011;11690;51.716;23.066;2024-02-28T01:51:22;113.85;;;44.97;;
23044;SDS011;11690;51.716;23.066;2024-02-28T01:53:50;77.65;;;30.35;;
23044;SDS011;11690;51.716;23.066;2024-02-28T01:56:18;73.95;;;24.98;;
23044;SDS011;11690;51.716;23.066;2024-02-28T01:58:46;70.47;;;24.42;;
23044;SDS011;11690;51.716;23.066;2024-02-28T02:01:14;116.85;;;40.92;;
23044;SDS011;11690;51.716;23.066;2024-02-28T02:03:48;82.18;;;31.00;;
23044;SDS011;11690;51.716;23.066;2024-02-28T02:06:15;75.32;;;26.70;;
23044;SDS011;11690;51.716;23.066;2024-02-28T02:08:42;78.82;;;28.83;;
23044;SDS011;11690;51.716;23.066;2024-02-28T02:11:09;65.57;;;25.70;;
23044;SDS011;11690;51.716;23.066;2024-02-28T02:13:46;65.40;;;32.83;;
23044;SDS011;11690;51.716;23.066;2024-02-28T02:16:17;61.72;;;23.65;;
23044;SDS011;11690;51.716;23.066;2024-02-28T02:18:46;56.60;;;24.20;;
23044;SDS011;11690;51.716;23.066;2024-02-28T02:21:17;68.88;;;26.88;;
23044;SDS011;11690;51.716;23.066;2024-02-28T02:23:46;61.20;;;31.98;;
23044;SDS011;11690;51.716;23.066;2024-02-28T02:26:13;57.80;;;22.35;;
23044;SDS011;11690;51.716;23.066;2024-02-28T02:28:40;38.47;;;19.08;;
23044;SDS011;11690;51.716;23.066;2024-02-28T02:31:07;34.40;;;17.48;;
23044;SDS011;11690;51.716;23.066;2024-02-28T02:33:35;34.45;;;16.75;;
23044;SDS011;11690;51.716;23.066;2024-02-28T02:36:02;36.80;;;16.63;;
23044;SDS011;11690;51.716;23.066;2024-02-28T02:38:29;29.75;;;16.83;;
23044;SDS011;11690;51.716;23.066;2024-02-28T02:40:56;31.58;;;15.82;;
23044;SDS011;11690;51.716;23.066;2024-02-28T02:43:23;64.90;;;22.73;;
23044;SDS011;11690;51.716;23.066;2024-02-28T02:45:50;47.30;;;22.17;;
23044;SDS011;11690;51.716;23.066;2024-02-28T02:48:17;35.83;;;17.17;;
23044;SDS011;11690;51.716;23.066;2024-02-28T02:50:44;69.65;;;23.95;;
23044;SDS011;11690;51.716;23.066;2024-02-28T02:53:12;56.10;;;23.55;;
23044;SDS011;11690;51.716;23.066;2024-02-28T02:55:39;114.95;;;46.15;;
23044;SDS011;11690;51.716;23.066;2024-02-28T02:58:07;84.75;;;33.08;;
23044;SDS011;11690;51.716;23.066;2024-02-28T03:00:34;234.18;;;58.42;;
23044;SDS011;11690;51.716;23.066;2024-02-28T03:03:01;163.77;;;44.85;;
23044;SDS011;11690;51.716;23.066;2024-02-28T03:05:28;177.43;;;51.38;;
23044;SDS011;11690;51.716;23.066;2024-02-28T03:07:55;79.18;;;34.88;;
23044;SDS011;11690;51.716;23.066;2024-02-28T03:10:22;114.10;;;32.08;;
23044;SDS011;11690;51.716;23.066;2024-02-28T03:12:49;122.40;;;35.30;;
23044;SDS011;11690;51.716;23.066;2024-02-28T03:15:17;112.70;;;34.17;;
23044;SDS011;11690;51.716;23.066;2024-02-28T03:17:44;88.85;;;35.78;;
23044;SDS011;11690;51.716;23.066;2024-02-28T03:20:12;71.65;;;30.05;;
23044;SDS011;11690;51.716;23.066;2024-02-28T03:22:41;73.18;;;26.63;;
23044;SDS011;11690;51.716;23.066;2024-02-28T03:25:08;97.18;;;31.52;;
23044;SDS011;11690;51.716;23.066;2024-02-28T03:27:36;90.97;;;28.02;;
23044;SDS011;11690;51.716;23.066;2024-02-28T03:30:03;76.47;;;34.35;;
23044;SDS011;11690;51.716;23.066;2024-02-28T03:32:30;48.95;;;20.35;;
23044;SDS011;11690;51.716;23.066;2024-02-28T03:34:57;62.85;;;24.38;;
23044;SDS011;11690;51.716;23.066;2024-02-28T03:37:25;213.27;;;49.67;;
23044;SDS011;11690;51.716;23.066;2024-02-28T03:39:52;135.50;;;53.65;;
23044;SDS011;11690;51.716;23.066;2024-02-28T03:42:20;215.18;;;54.78;;
23044;SDS011;11690;51.716;23.066;2024-02-28T03:44:48;132.73;;;41.35;;
23044;SDS011;11690;51.716;23.066;2024-02-28T03:47:15;178.13;;;47.45;;
23044;SDS011;11690;51.716;23.066;2024-02-28T03:49:42;181.63;;;59.95;;
23044;SDS011;11690;51.716;23.066;2024-02-28T03:52:09;102.07;;;35.95;;
23044;SDS011;11690;51.716;23.066;2024-02-28T03:54:36;37.00;;;20.08;;
23044;SDS011;11690;51.716;23.066;2024-02-28T03:57:03;34.85;;;19.02;;
23044;SDS011;11690;51.716;23.066;2024-02-28T03:59:30;38.25;;;19.80;;
23044;SDS011;11690;51.716;23.066;2024-02-28T04:01:58;66.68;;;31.95;;
23044;SDS011;11690;51.716;23.066;2024-02-28T04:04:24;92.18;;;32.08;;
23044;SDS011;11690;51.716;23.066;2024-02-28T04:06:52;73.37;;;26.90;;
23044;SDS011;11690;51.716;23.066;2024-02-28T04:09:19;35.33;;;17.95;;
23044;SDS011;11690;51.716;23.066;2024-02-28T04:11:47;32.83;;;18.27;;
23044;SDS011;11690;51.716;23.066;2024-02-28T04:14:14;44.05;;;21.58;;
23044;SDS011;11690;51.716;23.066;2024-02-28T04:16:42;54.92;;;22.65;;
23044;SDS011;11690;51.716;23.066;2024-02-28T04:19:13;55.55;;;23.30;;
23044;SDS011;11690;51.716;23.066;2024-02-28T04:21:41;106.00;;;50.40;;
23044;SDS011;11690;51.716;23.066;2024-02-28T04:24:08;197.80;;;59.97;;
23044;SDS011;11690;51.716;23.066;2024-02-28T04:26:36;105.53;;;34.90;;
23044;SDS011;11690;51.716;23.066;2024-02-28T04:29:03;90.03;;;30.90;;
23044;SDS011;11690;51.716;23.066;2024-02-28T04:31:32;76.93;;;28.67;;
23044;SDS011;11690;51.716;23.066;2024-02-28T04:33:59;86.60;;;44.40;;
23044;SDS011;11690;51.716;23.066;2024-02-28T04:36:26;70.90;;;27.75;;
23044;SDS011;11690;51.716;23.066;2024-02-28T04:38:53;110.03;;;34.92;;
23044;SDS011;11690;51.716;23.066;2024-02-28T04:41:20;93.72;;;31.00;;
23044;SDS011;11690;51.716;23.066;2024-02-28T04:43:48;60.72;;;27.02;;
23044;SDS011;11690;51.716;23.066;2024-02-28T04:46:15;51.47;;;22.17;;
23044;SDS011;11690;51.716;23.066;2024-02-28T04:48:42;40.75;;;18.77;;
23044;SDS011;11690;51.716;23.066;2024-02-28T04:51:09;38.95;;;17.33;;
23044;SDS011;11690;51.716;23.066;2024-02-28T04:53:36;33.42;;;17.48;;
23044;SDS011;11690;51.716;23.066;2024-02-28T04:56:06;39.90;;;19.38;;
23044;SDS011;11690;51.716;23.066;2024-02-28T04:58:33;31.55;;;16.52;;
23044;SDS011;11690;51.716;23.066;2024-02-28T05:01:00;31.80;;;16.50;;
23044;SDS011;11690;51.716;23.066;2024-02-28T05:03:27;79.57;;;26.50;;
23044;SDS011;11690;51.716;23.066;2024-02-28T05:05:56;59.88;;;27.80;;
23044;SDS011;11690;51.716;23.066;2024-02-28T05:08:23;107.03;;;34.00;;
23044;SDS011;11690;51.716;23.066;2024-02-28T05:10:51;133.70;;;36.83;;
23044;SDS011;11690;51.716;23.066;2024-02-28T05:13:18;98.13;;;31.60;;
23044;SDS011;11690;51.716;23.066;2024-02-28T05:15:45;85.17;;;36.63;;
23044;SDS011;11690;51.716;23.066;2024-02-28T05:18:12;43.60;;;22.08;;
23044;SDS011;11690;51.716;23.066;2024-02-28T05:20:40;124.47;;;38.17;;
23044;SDS011;11690;51.716;23.066;2024-02-28T05:23:07;71.85;;;26.63;;
23044;SDS011;11690;51.716;23.066;2024-02-28T05:25:34;109.38;;;49.90;;
23044;SDS011;11690;51.716;23.066;2024-02-28T05:28:01;63.28;;;26.52;;
23044;SDS011;11690;51.716;23.066;2024-02-28T05:30:28;90.97;;;30.08;;
23044;SDS011;11690;51.716;23.066;2024-02-28T05:32:55;184.13;;;44.88;;
23044;SDS011;11690;51.716;23.066;2024-02-28T05:35:22;140.45;;;38.15;;
23044;SDS011;11690;51.716;23.066;2024-02-28T05:37:52;171.18;;;69.63;;
23044;SDS011;11690;51.716;23.066;2024-02-28T05:40:21;87.05;;;32.67;;
23044;SDS011;11690;51.716;23.066;2024-02-28T05:42:48;66.72;;;24.92;;
23044;SDS011;11690;51.716;23.066;2024-02-28T05:45:15;40.63;;;20.65;;
23044;SDS011;11690;51.716;23.066;2024-02-28T05:47:42;41.05;;;18.65;;
23044;SDS011;11690;51.716;23.066;2024-02-28T05:50:09;45.45;;;22.83;;
23044;SDS011;11690;51.716;23.066;2024-02-28T05:52:37;79.60;;;28.73;;
23044;SDS011;11690;51.716;23.066;2024-02-28T05:55:04;67.25;;;25.20;;
23044;SDS011;11690;51.716;23.066;2024-02-28T05:57:31;214.07;;;51.42;;
23044;SDS011;11690;51.716;23.066;2024-02-28T05:59:59;141.95;;;52.78;;
23044;SDS011;11690;51.716;23.066;2024-02-28T06:02:26;76.88;;;30.10;;
23044;SDS011;11690;51.716;23.066;2024-02-28T06:04:53;103.38;;;32.63;;
23044;SDS011;11690;51.716;23.066;2024-02-28T06:07:20;127.32;;;42.53;;
23044;SDS011;11690;51.716;23.066;2024-02-28T06:09:47;162.80;;;62.42;;
23044;SDS011;11690;51.716;23.066;2024-02-28T06:12:14;122.90;;;45.80;;
23044;SDS011;11690;51.716;23.066;2024-02-28T06:14:42;98.28;;;34.38;;
23044;SDS011;11690;51.716;23.066;2024-02-28T06:17:13;125.22;;;40.90;;
23044;SDS011;11690;51.716;23.066;2024-02-28T06:20:19;121.00;;;45.65;;
23044;SDS011;11690;51.716;23.066;2024-02-28T06:22:46;131.10;;;47.75;;
23044;SDS011;11690;51.716;23.066;2024-02-28T06:25:13;122.45;;;39.92;;
23044;SDS011;11690;51.716;23.066;2024-02-28T06:27:45;106.25;;;37.92;;
23044;SDS011;11690;51.716;23.066;2024-02-28T06:30:13;95.78;;;34.78;;
23044;SDS011;11690;51.716;23.066;2024-02-28T06:32:40;100.50;;;41.63;;
23044;SDS011;11690;51.716;23.066;2024-02-28T06:35:07;125.13;;;37.80;;
23044;SDS011;11690;51.716;23.066;2024-02-28T06:37:35;73.32;;;28.23;;
23044;SDS011;11690;51.716;23.066;2024-02-28T06:40:02;91.60;;;32.30;;
23044;SDS011;11690;51.716;23.066;2024-02-28T06:42:35;133.55;;;57.80;;
23044;SDS011;11690;51.716;23.066;2024-02-28T06:45:03;94.63;;;30.48;;
23044;SDS011;11690;51.716;23.066;2024-02-28T06:47:31;53.03;;;23.48;;
23044;SDS011;11690;51.716;23.066;2024-02-28T06:49:59;56.00;;;24.08;;
23044;SDS011;11690;51.716;23.066;2024-02-28T06:52:26;50.15;;;27.15;;
23044;SDS011;11690;51.716;23.066;2024-02-28T06:54:53;46.35;;;20.58;;
23044;SDS011;11690;51.716;23.066;2024-02-28T06:57:21;121.28;;;37.55;;
23044;SDS011;11690;51.716;23.066;2024-02-28T06:59:48;84.88;;;30.35;;
23044;SDS011;11690;51.716;23.066;2024-02-28T07:02:15;50.97;;;22.42;;
23044;SDS011;11690;51.716;23.066;2024-02-28T07:04:42;56.45;;;27.30;;
23044;SDS011;11690;51.716;23.066;2024-02-28T07:07:09;64.60;;;24.67;;
23044;SDS011;11690;51.716;23.066;2024-02-28T07:09:37;74.32;;;27.33;;
23044;SDS011;11690;51.716;23.066;2024-02-28T07:12:05;62.33;;;23.02;;
23044;SDS011;11690;51.716;23.066;2024-02-28T07:14:32;47.47;;;24.15;;
23044;SDS011;11690;51.716;23.066;2024-02-28T07:16:59;75.85;;;27.70;;
23044;SDS011;11690;51.716;23.066;2024-02-28T07:19:26;68.30;;;24.05;;
23044;SDS011;11690;51.716;23.066;2024-02-28T07:21:54;77.10;;;27.20;;
23044;SDS011;11690;51.716;23.066;2024-02-28T07:24:21;74.07;;;37.40;;
23044;SDS011;11690;51.716;23.066;2024-02-28T07:26:48;121.43;;;43.03;;
23044;SDS011;11690;51.716;23.066;2024-02-28T07:29:15;65.60;;;27.35;;
23044;SDS011;11690;51.716;23.066;2024-02-28T07:31:42;81.63;;;27.67;;
23044;SDS011;11690;51.716;23.066;2024-02-28T07:34:10;95.90;;;29.42;;
23044;SDS011;11690;51.716;23.066;2024-02-28T07:36:37;54.72;;;26.15;;
23044;SDS011;11690;51.716;23.066;2024-02-28T07:39:04;107.38;;;34.88;;
23044;SDS011;11690;51.716;23.066;2024-02-28T07:41:32;114.93;;;34.28;;
23044;SDS011;11690;51.716;23.066;2024-02-28T07:43:59;74.80;;;27.80;;
23044;SDS011;11690;51.716;23.066;2024-02-28T07:46:27;59.92;;;29.70;;
23044;SDS011;11690;51.716;23.066;2024-02-28T07:48:54;97.18;;;33.25;;
23044;SDS011;11690;51.716;23.066;2024-02-28T07:51:21;46.38;;;20.98;;
23044;SDS011;11690;51.716;23.066;2024-02-28T07:53:49;40.13;;;19.33;;
23044;SDS011;11690;51.716;23.066;2024-02-28T07:56:16;49.55;;;22.00;;
23044;SDS011;11690;51.716;23.066;2024-02-28T07:58:44;36.25;;;19.77;;
23044;SDS011;11690;51.716;23.066;2024-02-28T08:01:12;45.83;;;21.45;;
23044;SDS011;11690;51.716;23.066;2024-02-28T08:03:39;33.38;;;18.48;;
23044;SDS011;11690;51.716;23.066;2024-02-28T08:06:07;51.40;;;21.52;;
23044;SDS011;11690;51.716;23.066;2024-02-28T08:08:35;66.65;;;34.15;;
23044;SDS011;11690;51.716;23.066;2024-02-28T08:11:02;44.80;;;20.60;;
23044;SDS011;11690;51.716;23.066;2024-02-28T08:13:30;40.03;;;19.17;;
23044;SDS011;11690;51.716;23.066;2024-02-28T08:15:59;54.63;;;21.98;;
23044;SDS011;11690;51.716;23.066;2024-02-28T08:18:27;39.20;;;20.00;;
23044;SDS011;11690;51.716;23.066;2024-02-28T08:20:55;59.17;;;25.40;;
23044;SDS011;11690;51.716;23.066;2024-02-28T08:23:24;48.35;;;20.63;;
23044;SDS011;11690;51.716;23.066;2024-02-28T08:25:53;37.13;;;17.88;;
23044;SDS011;11690;51.716;23.066;2024-02-28T08:28:20;83.78;;;30.65;;
23044;SDS011;11690;51.716;23.066;2024-02-28T08:30:48;73.55;;;33.42;;
23044;SDS011;11690;51.716;23.066;2024-02-28T08:33:15;81.20;;;29.25;;
23044;SDS011;11690;51.716;23.066;2024-02-28T08:35:45;56.08;;;23.02;;
23044;SDS011;11690;51.716;23.066;2024-02-28T08:38:12;59.45;;;22.67;;
23044;SDS011;11690;51.716;23.066;2024-02-28T08:40:39;86.68;;;41.72;;
23044;SDS011;11690;51.716;23.066;2024-02-28T08:43:06;62.50;;;26.02;;
23044;SDS011;11690;51.716;23.066;2024-02-28T08:45:34;78.80;;;28.13;;
23044;SDS011;11690;51.716;23.066;2024-02-28T08:48:04;34.30;;;17.75;;
23044;SDS011;11690;51.716;23.066;2024-02-28T08:50:32;77.13;;;42.10;;
23044;SDS011;11690;51.716;23.066;2024-02-28T08:52:59;58.65;;;26.63;;
23044;SDS011;11690;51.716;23.066;2024-02-28T08:55:27;47.53;;;21.17;;
23044;SDS011;11690;51.716;23.066;2024-02-28T08:57:55;54.35;;;23.45;;
23044;SDS011;11690;51.716;23.066;2024-02-28T09:00:22;97.75;;;30.95;;
23044;SDS011;11690;51.716;23.066;2024-02-28T09:02:49;49.28;;;22.77;;
23044;SDS011;11690;51.716;23.066;2024-02-28T09:05:17;90.57;;;26.95;;
23044;SDS011;11690;51.716;23.066;2024-02-28T09:07:45;53.53;;;22.17;;
23044;SDS011;11690;51.716;23.066;2024-02-28T09:10:18;62.63;;;23.13;;
23044;SDS011;11690;51.716;23.066;2024-02-28T09:12:51;39.95;;;22.17;;
23044;SDS011;11690;51.716;23.066;2024-02-28T09:15:19;53.03;;;22.23;;
23044;SDS011;11690;51.716;23.066;2024-02-28T09:17:46;59.00;;;22.60;;
23044;SDS011;11690;51.716;23.066;2024-02-28T09:20:14;72.82;;;26.40;;
23044;SDS011;11690;51.716;23.066;2024-02-28T09:22:44;132.15;;;44.63;;
23044;SDS011;11690;51.716;23.066;2024-02-28T09:25:12;60.47;;;27.48;;
23044;SDS011;11690;51.716;23.066;2024-02-28T09:27:39;70.38;;;26.83;;
23044;SDS011;11690;51.716;23.066;2024-02-28T09:30:06;59.50;;;23.23;;
23044;SDS011;11690;51.716;23.066;2024-02-28T09:32:33;142.98;;;42.95;;
23044;SDS011;11690;51.716;23.066;2024-02-28T09:35:02;46.85;;;23.88;;
23044;SDS011;11690;51.716;23.066;2024-02-28T09:37:31;46.38;;;21.42;;
23044;SDS011;11690;51.716;23.066;2024-02-28T09:39:58;44.67;;;21.17;;
23044;SDS011;11690;51.716;23.066;2024-02-28T09:42:25;36.58;;;18.85;;
23044;SDS011;11690;51.716;23.066;2024-02-28T09:44:55;38.80;;;20.85;;
23044;SDS011;11690;51.716;23.066;2024-02-28T09:47:22;30.67;;;17.63;;
23044;SDS011;11690;51.716;23.066;2024-02-28T09:49:50;39.20;;;19.05;;
23044;SDS011;11690;51.716;23.066;2024-02-28T09:52:17;33.15;;;17.17;;
23044;SDS011;11690;51.716;23.066;2024-02-28T09:54:45;87.57;;;35.63;;
23044;SDS011;11690;51.716;23.066;2024-02-28T09:57:13;41.28;;;21.48;;
23044;SDS011;11690;51.716;23.066;2024-02-28T09:59:41;32.50;;;17.40;;
23044;SDS011;11690;51.716;23.066;2024-02-28T10:02:20;27.83;;;15.77;;
23044;SDS011;11690;51.716;23.066;2024-02-28T10:04:48;33.35;;;16.85;;
23044;SDS011;11690;51.716;23.066;2024-02-28T10:07:16;31.67;;;18.05;;
23044;SDS011;11690;51.716;23.066;2024-02-28T10:09:44;32.70;;;18.10;;
23044;SDS011;11690;51.716;23.066;2024-02-28T10:12:11;30.08;;;16.58;;
23044;SDS011;11690;51.716;23.066;2024-02-28T10:14:37;52.53;;;22.23;;
23044;SDS011;11690;51.716;23.066;2024-02-28T10:17:05;34.35;;;17.27;;
23044;SDS011;11690;51.716;23.066;2024-02-28T10:19:34;104.80;;;38.60;;
23044;SDS011;11690;51.716;23.066;2024-02-28T10:22:01;49.80;;;21.30;;
23044;SDS011;11690;51.716;23.066;2024-02-28T10:24:29;64.45;;;25.42;;
23044;SDS011;11690;51.716;23.066;2024-02-28T10:27:00;38.85;;;19.45;;
23044;SDS011;11690;51.716;23.066;2024-02-28T10:29:27;30.92;;;18.05;;
23044;SDS011;11690;51.716;23.066;2024-02-28T10:31:55;36.05;;;18.45;;
23044;SDS011;11690;51.716;23.066;2024-02-28T10:34:22;45.50;;;21.48;;
23044;SDS011;11690;51.716;23.066;2024-02-28T10:36:50;43.70;;;20.67;;
23044;SDS011;11690;51.716;23.066;2024-02-28T10:39:17;35.97;;;18.10;;
23044;SDS011;11690;51.716;23.066;2024-02-28T10:41:46;29.50;;;16.50;;
23044;SDS011;11690;51.716;23.066;2024-02-28T10:44:13;31.15;;;17.20;;
23044;SDS011;11690;51.716;23.066;2024-02-28T10:46:41;32.08;;;17.55;;
23044;SDS011;11690;51.716;23.066;2024-02-28T10:49:09;34.70;;;18.17;;
23044;SDS011;11690;51.716;23.066;2024-02-28T10:51:37;36.17;;;17.52;;
23044;SDS011;11690;51.716;23.066;2024-02-28T10:54:10;35.08;;;18.08;;
23044;SDS011;11690;51.716;23.066;2024-02-28T10:56:42;32.00;;;17.05;;
23044;SDS011;11690;51.716;23.066;2024-02-28T10:59:11;33.33;;;16.52;;
23044;SDS011;11690;51.716;23.066;2024-02-28T11:01:41;28.85;;;16.33;;
23044;SDS011;11690;51.716;23.066;2024-02-28T11:04:10;30.85;;;17.30;;
23044;SDS011;11690;51.716;23.066;2024-02-28T11:06:47;38.30;;;18.40;;
23044;SDS011;11690;51.716;23.066;2024-02-28T11:09:22;32.63;;;17.98;;
23044;SDS011;11690;51.716;23.066;2024-02-28T11:11:51;29.48;;;16.73;;
23044;SDS011;11690;51.716;23.066;2024-02-28T11:14:18;30.92;;;16.75;;
23044;SDS011;11690;51.716;23.066;2024-02-28T11:17:02;31.25;;;17.58;;
23044;SDS011;11690;51.716;23.066;2024-02-28T11:19:32;38.63;;;19.02;;
23044;SDS011;11690;51.716;23.066;2024-02-28T11:22:04;32.13;;;18.05;;
23044;SDS011;11690;51.716;23.066;2024-02-28T11:24:35;31.77;;;17.23;;
23044;SDS011;11690;51.716;23.066;2024-02-28T11:27:06;30.23;;;17.80;;
23044;SDS011;11690;51.716;23.066;2024-02-28T11:29:34;33.88;;;17.83;;
23044;SDS011;11690;51.716;23.066;2024-02-28T11:32:01;33.30;;;17.45;;
23044;SDS011;11690;51.716;23.066;2024-02-28T11:34:28;32.80;;;17.92;;
23044;SDS011;11690;51.716;23.066;2024-02-28T11:36:55;36.03;;;17.83;;
23044;SDS011;11690;51.716;23.066;2024-02-28T11:39:23;36.35;;;18.70;;
23044;SDS011;11690;51.716;23.066;2024-02-28T11:41:52;30.02;;;17.67;;
23044;SDS011;11690;51.716;23.066;2024-02-28T11:44:20;32.90;;;17.92;;
23044;SDS011;11690;51.716;23.066;2024-02-28T11:46:47;42.25;;;20.73;;
23044;SDS011;11690;51.716;23.066;2024-02-28T11:49:15;42.05;;;17.80;;
23044;SDS011;11690;51.716;23.066;2024-02-28T11:51:43;31.80;;;18.17;;
23044;SDS011;11690;51.716;23.066;2024-02-28T11:54:10;32.05;;;17.92;;
23044;SDS011;11690;51.716;23.066;2024-02-28T11:56:38;31.25;;;17.77;;
23044;SDS011;11690;51.716;23.066;2024-02-28T11:59:06;34.15;;;17.17;;
23044;SDS011;11690;51.716;23.066;2024-02-28T12:01:38;36.63;;;19.33;;
23044;SDS011;11690;51.716;23.066;2024-02-28T12:04:07;31.13;;;17.73;;
23044;SDS011;11690;51.716;23.066;2024-02-28T12:06:35;34.90;;;19.45;;
23044;SDS011;11690;51.716;23.066;2024-02-28T12:09:04;34.85;;;20.80;;
23044;SDS011;11690;51.716;23.066;2024-02-28T12:11:31;34.17;;;19.48;;
23044;SDS011;11690;51.716;23.066;2024-02-28T12:13:58;32.83;;;18.67;;
23044;SDS011;11690;51.716;23.066;2024-02-28T12:16:26;37.13;;;19.75;;
23044;SDS011;11690;51.716;23.066;2024-02-28T12:18:54;34.58;;;19.38;;
23044;SDS011;11690;51.716;23.066;2024-02-28T12:21:21;34.28;;;19.67;;
23044;SDS011;11690;51.716;23.066;2024-02-28T12:23:52;36.00;;;19.75;;
23044;SDS011;11690;51.716;23.066;2024-02-28T12:26:19;29.17;;;18.13;;
23044;SDS011;11690;51.716;23.066;2024-02-28T12:28:46;35.53;;;20.25;;
23044;SDS011;11690;51.716;23.066;2024-02-28T12:31:13;52.33;;;31.85;;
23044;SDS011;11690;51.716;23.066;2024-02-28T12:33:41;41.28;;;21.67;;
23044;SDS011;11690;51.716;23.066;2024-02-28T12:36:09;31.98;;;18.38;;
23044;SDS011;11690;51.716;23.066;2024-02-28T12:38:36;32.15;;;18.67;;
23044;SDS011;11690;51.716;23.066;2024-02-28T12:41:03;31.25;;;18.10;;
23044;SDS011;11690;51.716;23.066;2024-02-28T12:43:30;33.33;;;19.35;;
23044;SDS011;11690;51.716;23.066;2024-02-28T12:45:59;32.45;;;18.38;;
23044;SDS011;11690;51.716;23.066;2024-02-28T12:48:27;34.78;;;19.92;;
23044;SDS011;11690;51.716;23.066;2024-02-28T12:50:54;33.90;;;18.63;;
23044;SDS011;11690;51.716;23.066;2024-02-28T12:53:21;32.75;;;18.23;;
23044;SDS011;11690;51.716;23.066;2024-02-28T12:55:48;35.80;;;18.38;;
23044;SDS011;11690;51.716;23.066;2024-02-28T12:58:15;30.98;;;17.45;;
23044;SDS011;11690;51.716;23.066;2024-02-28T13:00:43;31.65;;;18.48;;
23044;SDS011;11690;51.716;23.066;2024-02-28T13:03:10;34.17;;;17.67;;
23044;SDS011;11690;51.716;23.066;2024-02-28T13:05:37;35.72;;;19.52;;
23044;SDS011;11690;51.716;23.066;2024-02-28T13:08:05;34.53;;;16.73;;
23044;SDS011;11690;51.716;23.066;2024-02-28T13:10:32;29.58;;;18.67;;
23044;SDS011;11690;51.716;23.066;2024-02-28T13:13:02;34.80;;;17.67;;
23044;SDS011;11690;51.716;23.066;2024-02-28T13:15:30;44.67;;;20.33;;
23044;SDS011;11690;51.716;23.066;2024-02-28T13:17:57;34.17;;;18.35;;
23044;SDS011;11690;51.716;23.066;2024-02-28T13:20:24;35.08;;;19.70;;
23044;SDS011;11690;51.716;23.066;2024-02-28T13:22:51;41.45;;;20.15;;
23044;SDS011;11690;51.716;23.066;2024-02-28T13:25:19;68.95;;;26.30;;
23044;SDS011;11690;51.716;23.066;2024-02-28T13:27:46;56.88;;;23.95;;
23044;SDS011;11690;51.716;23.066;2024-02-28T13:30:14;54.22;;;23.13;;
23044;SDS011;11690;51.716;23.066;2024-02-28T13:32:41;44.65;;;23.90;;
23044;SDS011;11690;51.716;23.066;2024-02-28T13:35:11;41.35;;;21.48;;
23044;SDS011;11690;51.716;23.066;2024-02-28T13:37:38;33.28;;;18.40;;
23044;SDS011;11690;51.716;23.066;2024-02-28T13:40:07;36.15;;;19.65;;
23044;SDS011;11690;51.716;23.066;2024-02-28T13:42:37;38.30;;;20.83;;
23044;SDS011;11690;51.716;23.066;2024-02-28T13:45:08;36.28;;;20.48;;
23044;SDS011;11690;51.716;23.066;2024-02-28T13:47:36;37.58;;;20.83;;
23044;SDS011;11690;51.716;23.066;2024-02-28T13:50:03;39.70;;;20.10;;
23044;SDS011;11690;51.716;23.066;2024-02-28T13:52:30;35.85;;;20.00;;
23044;SDS011;11690;51.716;23.066;2024-02-28T13:54:58;37.03;;;20.48;;
23044;SDS011;11690;51.716;23.066;2024-02-28T13:57:25;38.33;;;20.75;;
23044;SDS011;11690;51.716;23.066;2024-02-28T13:59:53;39.17;;;20.95;;
23044;SDS011;11690;51.716;23.066;2024-02-28T14:02:21;36.63;;;21.02;;
23044;SDS011;11690;51.716;23.066;2024-02-28T14:04:49;34.92;;;20.98;;
23044;SDS011;11690;51.716;23.066;2024-02-28T14:07:16;42.78;;;22.20;;
23044;SDS011;11690;51.716;23.066;2024-02-28T14:09:44;37.22;;;21.85;;